Time;durP1;ratioP1;P1;durP2;ratioP2;P2;SDS_P1;SDS_P2;PMS_P1;PMS_P2;Temp;Humidity;BMP_temperature;BMP_pressure;BME280_temperature;BME280_humidity;BME280_pressure;Samples;Min_cycle;Max_cycle;Signal;HPM_P1;HPM_P2
2022/12/01 00:00:44;;;;;;;;;28.50;21.75;;;;;7.34;75.77;102254.84;5096130;27;45341;-83
2022/12/01 00:03:09;;;;;;;;;30.25;20.75;;;;;7.33;75.70;102253.09;5078012;27;45387;-84
2022/12/01 00:05:35;;;;;;;;;35.00;22.75;;;;;7.30;75.72;102259.13;5096489;27;45387;-84
2022/12/01 00:08:01;;;;;;;;;38.50;24.75;;;;;7.28;75.87;102257.38;5096232;27;45635;-84
2022/12/01 00:10:27;;;;;;;;;26.25;17.00;;;;;7.31;76.02;102265.19;5077606;27;45824;-84
2022/12/01 00:13:01;;;;;;;;;34.50;20.00;;;;;7.29;76.14;102256.53;5077850;27;45376;-84
2022/12/01 00:15:29;;;;;;;;;24.25;17.25;;;;;7.15;76.25;102244.31;5077821;27;45522;-84
2022/12/01 00:17:54;;;;;;;;;30.50;18.00;;;;;7.14;76.36;102252.94;5077387;27;47212;-84
2022/12/01 00:20:19;;;;;;;;;35.75;25.75;;;;;7.24;76.29;102271.16;5077717;27;45368;-83
2022/12/01 00:22:46;;;;;;;;;31.00;17.25;;;;;7.12;76.60;102248.59;5095823;27;45398;-84
2022/12/01 00:25:12;;;;;;;;;27.25;21.75;;;;;7.19;76.14;102265.94;5077359;27;45401;-84
2022/12/01 00:27:38;;;;;;;;;32.00;25.50;;;;;7.16;76.44;102271.09;5095605;27;46476;-84
2022/12/01 00:30:05;;;;;;;;;23.25;19.25;;;;;7.04;76.48;102255.41;5096075;27;45402;-84
2022/12/01 00:32:30;;;;;;;;;32.75;22.00;;;;;7.09;76.46;102261.50;5077538;27;45250;-84
2022/12/01 00:34:55;;;;;;;;;35.50;27.75;;;;;7.08;76.65;102254.63;5098010;27;45417;-84
2022/12/01 00:37:21;;;;;;;;;30.50;21.00;;;;;7.06;76.67;102261.50;5081065;27;47128;-84
2022/12/01 00:39:46;;;;;;;;;35.00;19.00;;;;;7.11;76.49;102275.34;5077436;27;45360;-84
2022/12/01 00:42:14;;;;;;;;;31.25;20.75;;;;;7.00;76.42;102253.66;5097212;27;45555;-84
2022/12/01 00:44:39;;;;;;;;;27.50;20.00;;;;;7.07;76.50;102265.81;5099512;27;45371;-84
2022/12/01 00:47:05;;;;;;;;;31.25;22.00;;;;;7.10;76.71;102277.06;5080570;27;48265;-84
2022/12/01 00:49:30;;;;;;;;;30.00;21.50;;;;;7.02;76.51;102264.88;5098644;27;60411;-84
2022/12/01 00:51:55;;;;;;;;;26.75;23.50;;;;;7.05;76.15;102268.38;5080703;27;52354;-84
2022/12/01 00:54:21;;;;;;;;;34.75;23.00;;;;;7.06;76.70;102275.31;5080386;27;59703;-84
2022/12/01 00:56:46;;;;;;;;;27.75;22.50;;;;;6.98;76.51;102264.00;5080418;27;68588;-83
2022/12/01 00:59:12;;;;;;;;;26.50;19.00;;;;;6.98;76.43;102267.47;5098227;27;61132;-84
2022/12/01 01:01:37;;;;;;;;;45.00;24.50;;;;;7.01;76.51;102264.03;5099092;27;45500;-83
2022/12/01 01:04:02;;;;;;;;;25.50;19.75;;;;;6.92;76.42;102257.03;5063708;27;45403;-83
2022/12/01 01:06:28;;;;;;;;;32.75;22.25;;;;;6.92;76.42;102256.16;5080377;27;46335;-84
2022/12/01 01:08:54;;;;;;;;;30.00;21.00;;;;;6.93;76.36;102257.91;5098281;27;45256;-84
2022/12/01 01:11:19;;;;;;;;;29.50;25.25;;;;;6.86;76.56;102243.16;5080520;27;45487;-84
2022/12/01 01:13:45;;;;;;;;;29.50;20.75;;;;;6.95;76.25;102266.56;5080337;27;45694;-83
2022/12/01 01:16:19;;;;;;;;;29.75;20.25;;;;;6.92;76.44;102261.34;5098486;27;46091;-83
2022/12/01 01:18:47;;;;;;;;;33.50;27.50;;;;;6.90;76.54;102269.09;5080416;27;45396;-84
2022/12/01 01:21:17;;;;;;;;;34.00;24.50;;;;;6.88;76.31;102265.63;5098826;27;45445;-83
2022/12/01 01:23:43;;;;;;;;;26.00;23.25;;;;;6.83;76.45;102269.00;5080222;27;45486;-84
2022/12/01 01:26:17;;;;;;;;;28.50;19.75;;;;;6.85;76.29;102272.47;5080294;27;45416;-84
2022/12/01 01:28:43;;;;;;;;;35.00;24.50;;;;;6.74;76.39;102262.00;5098701;27;45294;-83
2022/12/01 01:31:12;;;;;;;;;32.00;22.00;;;;;6.79;76.06;102273.28;5094421;27;45265;-83
2022/12/01 01:33:37;;;;;;;;;35.50;24.75;;;;;6.78;76.38;102275.00;5059769;28;45559;-83
2022/12/01 01:36:03;;;;;;;;;26.25;22.00;;;;;6.78;76.41;102281.91;5059714;28;45454;-84
2022/12/01 01:38:30;;;;;;;;;30.25;17.75;;;;;6.68;76.46;102280.91;5059407;28;45513;-84
2022/12/01 01:40:55;;;;;;;;;31.25;23.00;;;;;6.66;76.33;102280.03;5042784;28;45474;-84
2022/12/01 01:43:39;;;;;;;;;28.00;21.25;;;;;6.76;76.39;102297.41;5059839;28;45468;-83
2022/12/01 01:46:05;;;;;;;;;36.00;27.25;;;;;6.78;76.55;102297.44;5076837;28;45489;-84
2022/12/01 01:48:31;;;;;;;;;31.00;17.00;;;;;6.68;76.46;102278.31;5059632;28;45869;-84
2022/12/01 01:50:57;;;;;;;;;37.00;23.00;;;;;6.74;76.64;102291.34;5059651;28;45396;-85
2022/12/01 01:53:24;;;;;;;;;27.25;19.00;;;;;6.75;76.20;102287.03;5058861;28;55123;-83
2022/12/01 01:55:50;;;;;;;;;30.00;16.50;;;;;6.76;76.13;102278.41;5059553;28;45473;-84
2022/12/01 01:58:15;;;;;;;;;27.25;19.25;;;;;6.81;75.98;102270.72;5059685;28;45247;-84
2022/12/01 02:00:42;;;;;;;;;26.00;19.75;;;;;6.89;76.44;102280.31;5059571;28;46022;-84
2022/12/01 02:03:09;;;;;;;;;25.25;21.50;;;;;6.93;75.92;102278.63;5059383;28;45521;-84
2022/12/01 02:05:35;;;;;;;;;22.25;22.00;;;;;6.99;76.08;102289.03;5059087;28;45968;-83
2022/12/01 02:08:02;;;;;;;;;28.25;21.50;;;;;7.02;75.41;102278.72;5058710;28;58517;-83
2022/12/01 02:10:47;;;;;;;;;20.00;16.50;;;;;7.11;75.91;102289.19;5077495;28;45548;-84
2022/12/01 02:13:12;;;;;;;;;28.50;17.00;;;;;7.17;75.90;102281.47;5059404;28;45517;-84
2022/12/01 02:15:46;;;;;;;;;29.75;18.75;;;;;7.22;75.43;102284.09;5077226;28;45456;-84
2022/12/01 02:18:30;;;;;;;;;29.00;19.50;;;;;7.16;75.53;102266.75;5077425;28;45680;-84
2022/12/01 02:21:05;;;;;;;;;26.50;17.25;;;;;7.29;75.06;102280.69;5042278;28;45483;-84
2022/12/01 02:23:48;;;;;;;;;26.50;15.00;;;;;7.29;75.06;102291.06;5059159;28;45431;-84
2022/12/01 02:26:40;;;;;;;;;30.75;20.75;;;;;7.21;74.68;102271.16;5077135;28;46349;-84
2022/12/01 02:29:23;;;;;;;;;30.25;18.50;;;;;7.30;74.75;102289.34;4978613;28;45406;-84
2022/12/01 02:32:09;;;;;;;;;28.25;18.75;;;;;7.27;74.69;102286.72;5004123;28;45316;-84
2022/12/01 02:35:12;;;;;;;;;28.75;18.25;;;;;7.26;74.72;102291.06;5014589;28;45599;-83
2022/12/01 02:37:56;;;;;;;;;20.25;18.50;;;;;7.28;74.10;102293.63;4954711;28;45589;-84
2022/12/01 02:40:50;;;;;;;;;32.75;21.50;;;;;7.25;74.46;102291.88;4949912;28;45903;-84
2022/12/01 02:43:45;;;;;;;;;26.75;18.75;;;;;7.18;74.95;102287.50;4860138;29;45532;-84
2022/12/01 02:46:33;;;;;;;;;19.25;16.00;;;;;7.22;74.26;102289.25;4860396;29;45538;-84
2022/12/01 02:49:02;;;;;;;;;27.50;16.00;;;;;7.20;74.30;102284.94;4860016;29;47258;-84
2022/12/01 02:51:30;;;;;;;;;28.50;19.00;;;;;7.17;74.11;102275.41;4844414;29;45533;-84
2022/12/01 02:54:01;;;;;;;;;32.50;21.50;;;;;7.18;74.35;102274.56;4844649;29;45593;-84
2022/12/01 02:56:26;;;;;;;;;32.75;20.75;;;;;7.16;74.18;102266.75;4844596;29;45539;-84
2022/12/01 02:58:52;;;;;;;;;28.00;20.00;;;;;7.15;74.02;102262.44;4828070;29;67410;-84
2022/12/01 03:01:40;;;;;;;;;28.75;19.50;;;;;7.13;74.33;102264.16;4843698;29;57981;-84
2022/12/01 03:04:14;;;;;;;;;36.00;25.25;;;;;7.07;74.08;102266.66;4860065;29;45401;-84
2022/12/01 03:06:48;;;;;;;;;33.00;17.25;;;;;7.02;74.30;102262.31;4892721;28;45577;-84
2022/12/01 03:09:33;;;;;;;;;32.00;18.25;;;;;6.89;74.50;102250.94;4919969;28;45659;-83
2022/12/01 03:12:29;;;;;;;;;38.25;25.50;;;;;6.88;74.67;102272.53;4919359;28;45467;-84
2022/12/01 03:15:07;;;;;;;;;27.50;21.50;;;;;6.82;74.83;102262.13;4971381;28;45506;-84
2022/12/01 03:17:42;;;;;;;;;29.75;19.25;;;;;6.70;74.89;102244.72;4974597;28;45276;-84
2022/12/01 03:20:13;;;;;;;;;24.00;18.50;;;;;6.79;75.15;102255.16;5015864;28;46253;-84
2022/12/01 03:22:43;;;;;;;;;31.75;23.25;;;;;6.68;74.89;102243.81;5074659;28;45930;-83
2022/12/01 03:25:11;;;;;;;;;28.00;20.25;;;;;6.70;75.32;102252.47;5075308;28;45308;-84
2022/12/01 03:27:40;;;;;;;;;27.75;24.25;;;;;6.63;74.98;102258.41;5074933;28;45436;-83
2022/12/01 03:30:09;;;;;;;;;26.00;15.00;;;;;6.59;74.90;102249.75;5074773;28;45562;-84
2022/12/01 03:32:46;;;;;;;;;29.00;20.25;;;;;6.63;75.25;102269.66;5074631;28;45857;-83
2022/12/01 03:35:28;;;;;;;;;22.75;18.75;;;;;6.64;75.28;102276.56;5074541;28;45370;-84
2022/12/01 03:38:04;;;;;;;;;28.25;21.00;;;;;6.65;74.93;102277.41;5074756;28;45479;-84
2022/12/01 03:40:31;;;;;;;;;38.75;21.50;;;;;6.52;75.11;102253.13;5040560;28;48284;-84
2022/12/01 03:43:02;;;;;;;;;31.50;20.50;;;;;6.53;75.39;102258.31;5057606;28;45898;-84
2022/12/01 03:46:00;;;;;;;;;31.25;19.00;;;;;6.62;75.23;102274.81;5074892;28;45250;-83
2022/12/01 03:48:26;;;;;;;;;23.00;18.00;;;;;6.57;75.70;102264.41;5066268;27;45517;-84
2022/12/01 03:51:05;;;;;;;;;25.50;22.00;;;;;6.60;75.29;102274.78;5057690;28;48126;-84
2022/12/01 03:53:52;;;;;;;;;18.75;14.00;;;;;6.55;75.64;102263.50;5057521;28;45912;-84
2022/12/01 03:56:20;;;;;;;;;14.50;11.00;;;;;6.54;75.53;102262.66;5074981;28;45504;-83
2022/12/01 03:58:48;;;;;;;;;30.50;21.75;;;;;6.54;75.91;102256.63;5074564;28;45418;-84
2022/12/01 04:01:13;;;;;;;;;30.00;19.75;;;;;6.55;75.73;102253.16;5057575;28;46334;-84
2022/12/01 04:03:39;;;;;;;;;27.75;18.75;;;;;6.54;75.37;102262.66;5075485;28;47503;-83
2022/12/01 04:06:05;;;;;;;;;25.75;17.50;;;;;6.48;75.70;102257.41;5075934;28;45425;-83
2022/12/01 04:08:32;;;;;;;;;32.50;16.50;;;;;6.32;75.22;102238.22;5057723;28;45380;-83
2022/12/01 04:10:57;;;;;;;;;35.00;22.00;;;;;6.36;75.50;102252.06;5077635;28;48447;-84
2022/12/01 04:13:24;;;;;;;;;29.00;19.75;;;;;6.33;75.82;102252.91;5061043;28;45305;-83
2022/12/01 04:15:53;;;;;;;;;29.00;23.50;;;;;6.30;75.89;102245.09;5079612;28;45352;-84
2022/12/01 04:18:18;;;;;;;;;31.50;20.75;;;;;6.32;76.09;102248.56;5077498;28;45562;-83
2022/12/01 04:20:45;;;;;;;;;19.50;19.25;;;;;6.28;75.80;102244.22;5079015;28;47231;-84
2022/12/01 04:23:58;;;;;;;;;32.00;22.50;;;;;6.34;76.20;102262.38;5077339;28;45498;-83
2022/12/01 04:26:00;;;;;;;;;19.00;18.00;;;;;6.32;75.87;102251.16;5078036;28;45436;-84
2022/12/01 04:28:26;;;;;;;;;34.00;20.25;;;;;6.26;76.14;102247.63;5079434;28;45297;-84
2022/12/01 04:30:51;;;;;;;;;29.00;18.50;;;;;6.29;75.88;102252.84;5080157;27;46420;-83
2022/12/01 04:33:16;;;;;;;;;27.50;18.50;;;;;6.26;76.11;102252.78;5098780;27;47638;-84
2022/12/01 04:35:42;;;;;;;;;27.00;21.00;;;;;6.28;76.15;102258.84;5081026;27;45384;-84
2022/12/01 04:38:07;;;;;;;;;40.50;21.50;;;;;6.21;75.98;102247.56;5080543;27;63615;-83
2022/12/01 04:40:33;;;;;;;;;30.00;22.25;;;;;6.24;76.53;102249.31;5079817;27;68990;-84
2022/12/01 04:42:58;;;;;;;;;33.75;21.50;;;;;6.22;76.21;102254.47;5080050;27;67311;-84
2022/12/01 04:45:23;;;;;;;;;32.00;23.25;;;;;6.30;76.39;102263.22;5080224;27;60150;-84
2022/12/01 04:47:51;;;;;;;;;31.50;19.25;;;;;6.28;76.02;102266.59;5080021;27;58369;-83
2022/12/01 04:50:17;;;;;;;;;24.25;20.25;;;;;6.27;76.55;102270.06;5099143;27;45432;-84
2022/12/01 04:52:42;;;;;;;;;32.25;24.50;;;;;6.14;76.16;102240.56;5080219;27;64625;-84
2022/12/01 04:55:08;;;;;;;;;31.00;23.25;;;;;6.17;76.29;102259.59;5081223;27;45426;-84
2022/12/01 04:57:33;;;;;;;;;28.25;21.00;;;;;6.10;76.31;102247.41;5080665;27;45561;-83
2022/12/01 04:59:59;;;;;;;;;31.75;19.50;;;;;6.18;75.98;102265.63;5079915;27;65544;-83
2022/12/01 05:02:24;;;;;;;;;27.25;18.50;;;;;6.13;76.29;102247.47;5063167;27;53547;-83
2022/12/01 05:04:49;;;;;;;;;21.00;12.50;;;;;6.22;76.26;102258.78;5080511;27;55908;-83
2022/12/01 05:07:15;;;;;;;;;28.00;18.75;;;;;6.13;76.20;102252.63;5080667;27;45525;-83
2022/12/01 05:09:40;;;;;;;;;24.50;16.75;;;;;6.11;76.04;102258.63;5098693;27;46547;-84
2022/12/01 05:12:06;;;;;;;;;26.50;19.25;;;;;6.07;76.18;102257.69;5080693;27;45472;-84
2022/12/01 05:14:31;;;;;;;;;28.50;19.75;;;;;6.02;76.12;102249.03;5080714;27;45351;-84
2022/12/01 05:16:58;;;;;;;;;23.25;17.00;;;;;6.02;76.15;102249.03;5080558;27;45532;-84
2022/12/01 05:22:08;;;;;;;;;32.25;19.25;;;;;6.07;76.49;102265.47;5097497;27;45454;-83
2022/12/01 05:24:33;;;;;;;;;28.50;17.00;;;;;6.06;76.61;102265.47;5098336;27;50612;-84
2022/12/01 05:26:59;;;;;;;;;31.25;19.25;;;;;6.09;76.14;102265.47;5080992;27;45457;-84
2022/12/01 05:29:24;;;;;;;;;21.75;17.25;;;;;5.99;75.96;102255.00;5080042;27;60393;-83
2022/12/01 05:31:52;;;;;;;;;25.50;17.75;;;;;5.98;76.72;102253.28;5098131;27;45504;-84
2022/12/01 05:34:17;;;;;;;;;26.25;21.25;;;;;6.05;76.39;102254.22;5080859;27;45447;-84
2022/12/01 05:36:44;;;;;;;;;30.50;18.75;;;;;6.15;76.11;102275.94;5099105;27;45487;-84
2022/12/01 05:39:12;;;;;;;;;27.25;18.50;;;;;6.06;76.05;102257.72;5081351;27;45502;-84
2022/12/01 05:41:38;;;;;;;;;32.50;21.75;;;;;6.13;76.11;102278.50;5079438;27;45401;-83
2022/12/01 05:44:03;;;;;;;;;26.50;18.50;;;;;6.11;75.89;102269.84;5059978;28;45467;-84
2022/12/01 05:46:28;;;;;;;;;25.00;21.00;;;;;6.13;76.01;102265.56;5060338;28;45621;-84
2022/12/01 05:48:54;;;;;;;;;37.00;23.75;;;;;6.07;76.15;102255.13;5060213;28;49740;-84
2022/12/01 05:51:19;;;;;;;;;23.25;16.00;;;;;6.16;76.02;102280.25;5049726;28;45486;-84
2022/12/01 05:53:45;;;;;;;;;22.00;18.00;;;;;6.09;75.85;102270.66;5095031;28;45316;-84
2022/12/01 05:56:11;;;;;;;;;25.25;17.00;;;;;5.95;75.87;102258.41;5076989;28;45370;-83
2022/12/01 05:58:36;;;;;;;;;30.25;21.75;;;;;6.07;75.92;102282.69;5092890;28;45714;-84
2022/12/01 06:01:02;;;;;;;;;34.00;22.75;;;;;5.98;75.94;102268.81;5076121;28;45435;-83
2022/12/01 06:03:27;;;;;;;;;30.50;20.50;;;;;6.05;75.82;102271.47;5075834;28;45373;-83
2022/12/01 06:05:53;;;;;;;;;26.00;18.00;;;;;5.96;75.79;102256.69;5076603;28;45233;-84
2022/12/01 06:08:18;;;;;;;;;26.75;18.50;;;;;6.03;75.51;102255.94;5075290;28;45972;-84
2022/12/01 06:10:44;;;;;;;;;31.00;21.00;;;;;6.06;75.60;102266.31;5092358;28;45249;-83
2022/12/01 06:13:09;;;;;;;;;21.25;18.00;;;;;6.02;75.35;102251.63;5047133;28;45317;-84
2022/12/01 06:15:34;;;;;;;;;29.25;18.50;;;;;6.01;75.62;102250.72;5059934;28;45337;-83
2022/12/01 06:18:00;;;;;;;;;32.00;19.00;;;;;6.07;75.34;102246.50;5058936;28;64467;-84
2022/12/01 06:20:26;;;;;;;;;33.25;19.50;;;;;6.08;75.55;102249.13;5077569;28;45381;-83
2022/12/01 06:22:51;;;;;;;;;28.25;22.25;;;;;6.07;75.39;102243.91;5059580;28;45337;-83
2022/12/01 06:25:16;;;;;;;;;29.25;20.75;;;;;6.13;75.44;102260.41;5058734;28;62285;-84
2022/12/01 06:27:42;;;;;;;;;35.00;22.25;;;;;6.10;75.40;102257.75;5058820;28;65648;-85
2022/12/01 06:30:08;;;;;;;;;34.25;20.75;;;;;6.07;75.61;102259.44;5043130;28;45363;-85
2022/12/01 06:32:33;;;;;;;;;27.00;19.50;;;;;6.15;75.23;102271.63;5059744;28;45493;-86
2022/12/01 06:34:58;;;;;;;;;35.25;24.25;;;;;5.99;75.19;102251.56;5076540;28;45581;-83
2022/12/01 06:37:25;;;;;;;;;27.25;17.25;;;;;6.10;75.09;102275.84;5058672;28;46608;-82
2022/12/01 06:39:50;;;;;;;;;20.50;16.00;;;;;6.07;75.23;102277.53;5058559;27;45448;-84
2022/12/01 06:42:16;;;;;;;;;31.50;21.50;;;;;5.95;74.68;102261.00;5060002;27;45459;-84
2022/12/01 06:44:41;;;;;;;;;30.25;22.75;;;;;6.00;75.08;102274.00;5097371;27;45389;-83
2022/12/01 06:47:07;;;;;;;;;29.25;24.50;;;;;5.96;75.24;102273.09;5078769;27;46132;-84
2022/12/01 06:49:32;;;;;;;;;32.75;23.25;;;;;6.00;75.00;102280.03;5061969;27;45411;-82
2022/12/01 06:51:58;;;;;;;;;29.50;21.25;;;;;5.98;75.04;102286.91;5097130;27;45263;-83
2022/12/01 06:54:23;;;;;;;;;29.75;20.75;;;;;5.97;75.35;102284.28;5078828;27;45477;-83
2022/12/01 06:56:48;;;;;;;;;35.00;24.75;;;;;5.92;75.08;102284.16;5097004;27;45594;-84
2022/12/01 06:59:14;;;;;;;;;24.00;17.50;;;;;5.93;75.30;102280.75;5078621;27;45411;-83
2022/12/01 07:01:39;;;;;;;;;38.25;22.25;;;;;5.94;74.95;102274.75;5096921;27;45324;-83
2022/12/01 07:04:05;;;;;;;;;35.00;21.50;;;;;5.96;75.24;102290.28;5078646;27;45304;-84
2022/12/01 07:06:30;;;;;;;;;35.50;25.00;;;;;5.96;75.03;102292.88;5078308;27;46238;-85
2022/12/01 07:08:56;;;;;;;;;16.00;16.00;;;;;6.00;74.86;102294.69;5061481;27;45304;-83
2022/12/01 07:11:21;;;;;;;;;32.00;24.25;;;;;6.03;75.32;102305.03;5096520;27;45566;-83
2022/12/01 07:13:49;;;;;;;;;26.25;18.50;;;;;6.06;75.18;102310.28;5078596;27;45390;-82
2022/12/01 07:16:14;;;;;;;;;32.75;19.50;;;;;6.05;74.84;102305.06;5078765;27;45627;-83
2022/12/01 07:18:40;;;;;;;;;28.50;19.75;;;;;6.07;74.93;102313.72;5078090;27;48386;-83
2022/12/01 07:21:07;;;;;;;;;35.50;25.25;;;;;6.04;75.16;102306.81;5078528;27;45469;-83
2022/12/01 07:23:33;;;;;;;;;26.00;17.50;;;;;6.14;75.12;102310.38;5078504;27;45285;-82
2022/12/01 07:26:00;;;;;;;;;23.25;19.25;;;;;6.09;74.89;102309.44;5095980;27;45307;-83
2022/12/01 07:28:26;;;;;;;;;27.75;14.25;;;;;6.10;74.78;102322.38;5078261;27;45857;-83
2022/12/01 07:30:51;;;;;;;;;28.25;21.25;;;;;6.05;74.97;102320.59;5096510;27;45297;-83
2022/12/01 07:33:17;;;;;;;;;34.25;23.00;;;;;6.10;75.37;102331.88;5077987;27;51679;-83
2022/12/01 07:35:42;;;;;;;;;29.00;18.75;;;;;6.12;75.15;102331.03;5078102;27;49707;-83
2022/12/01 07:38:07;;;;;;;;;28.75;20.75;;;;;6.12;74.81;102328.44;5077884;27;48959;-83
2022/12/01 07:40:33;;;;;;;;;21.75;14.25;;;;;6.07;75.09;102326.66;5073831;28;56710;-83
2022/12/01 07:42:58;;;;;;;;;22.00;18.00;;;;;6.09;75.18;102330.13;5074263;28;51173;-82
2022/12/01 07:45:23;;;;;;;;;30.75;22.00;;;;;6.18;74.55;102338.00;5076489;28;70325;-83
2022/12/01 07:47:52;;;;;;;;;29.75;21.00;;;;;6.16;75.11;102343.16;5077439;28;67451;-82
2022/12/01 07:50:17;;;;;;;;;28.50;21.00;;;;;6.22;74.83;102346.69;5078242;28;45481;-82
2022/12/01 07:52:42;;;;;;;;;30.25;21.00;;;;;6.14;74.90;102346.56;5079380;28;45468;-82
2022/12/01 07:55:08;;;;;;;;;27.50;16.00;;;;;6.05;74.98;102329.19;5077459;28;54503;-82
2022/12/01 07:57:33;;;;;;;;;30.25;23.00;;;;;6.15;74.61;102349.19;5047187;28;45385;-82
2022/12/01 07:59:59;;;;;;;;;27.50;18.75;;;;;6.18;74.99;102348.34;5060362;28;64452;-83
2022/12/01 08:02:24;;;;;;;;;32.75;26.00;;;;;6.26;74.92;102370.06;5077452;28;55785;-80
2022/12/01 08:04:49;;;;;;;;;29.75;23.75;;;;;6.30;74.83;102365.78;5079406;27;46092;-83
2022/12/01 08:07:15;;;;;;;;;22.75;18.25;;;;;6.24;74.57;102345.88;5064448;28;69331;-83
2022/12/01 08:09:40;;;;;;;;;28.25;21.25;;;;;6.30;74.26;102361.47;5059991;28;63731;-83
2022/12/01 08:12:06;;;;;;;;;25.50;16.25;;;;;6.39;74.36;102377.13;5067371;27;58268;-83
2022/12/01 08:14:31;;;;;;;;;27.00;18.50;;;;;6.40;74.50;102386.63;5097247;27;46520;-84
2022/12/01 08:16:56;;;;;;;;;28.25;20.75;;;;;6.43;74.52;102379.78;5062780;27;65137;-84
2022/12/01 08:19:22;;;;;;;;;35.75;24.50;;;;;6.38;74.18;102369.34;5085117;27;45649;-84
2022/12/01 08:21:47;;;;;;;;;35.50;15.25;;;;;6.34;73.88;102367.56;5068411;27;45472;-83
2022/12/01 08:24:12;;;;;;;;;23.00;16.75;;;;;6.39;74.11;102384.91;5068187;27;59378;-82
2022/12/01 08:26:38;;;;;;;;;26.50;16.75;;;;;6.37;74.46;102377.94;5083323;27;45579;-84
2022/12/01 08:29:03;;;;;;;;;29.25;19.50;;;;;6.36;74.20;102366.72;5095511;27;45529;-83
2022/12/01 08:31:31;;;;;;;;;22.00;19.00;;;;;6.48;73.90;102385.88;5074378;27;45505;-84
2022/12/01 08:33:57;;;;;;;;;21.50;17.75;;;;;6.47;73.83;102382.41;5080819;27;47047;-85
2022/12/01 08:36:23;;;;;;;;;28.50;19.25;;;;;6.38;73.90;102370.22;5080775;27;45398;-85
2022/12/01 08:38:51;;;;;;;;;25.00;17.25;;;;;6.47;74.29;102390.19;5067711;28;45515;-84
2022/12/01 08:41:17;;;;;;;;;24.25;17.75;;;;;6.44;74.48;102371.16;5083243;27;45515;-83
2022/12/01 08:43:43;;;;;;;;;19.00;15.25;;;;;6.44;74.27;102373.75;5059884;28;47000;-84
2022/12/01 08:46:10;;;;;;;;;24.25;20.50;;;;;6.51;74.14;102373.84;5060377;28;45416;-84
2022/12/01 08:48:36;;;;;;;;;29.50;21.25;;;;;6.59;73.70;102389.47;5078434;28;45460;-84
2022/12/01 08:51:05;;;;;;;;;19.25;16.00;;;;;6.65;73.97;102388.69;5078269;28;45385;-84
2022/12/01 08:53:31;;;;;;;;;29.50;21.25;;;;;6.59;73.86;102380.00;5076484;28;47087;-83
2022/12/01 08:56:02;;;;;;;;;21.25;15.50;;;;;6.70;73.83;102384.44;5059733;28;45345;-84
2022/12/01 08:58:28;;;;;;;;;23.00;19.00;;;;;6.70;73.96;102384.44;5060283;28;45520;-84
2022/12/01 09:01:00;;;;;;;;;21.00;17.75;;;;;6.77;74.12;102389.72;5060294;28;45249;-84
2022/12/01 09:03:25;;;;;;;;;28.25;16.50;;;;;6.85;73.44;102397.59;5077612;28;46276;-84
2022/12/01 09:05:50;;;;;;;;;22.00;15.50;;;;;6.84;73.70;102392.41;5059415;28;47282;-84
2022/12/01 09:08:31;;;;;;;;;22.75;13.50;;;;;6.82;73.48;102384.63;5078131;28;45438;-84
2022/12/01 09:10:57;;;;;;;;;21.25;14.25;;;;;6.93;73.60;102387.34;5061976;28;45308;-84
2022/12/01 09:13:22;;;;;;;;;25.00;15.25;;;;;6.88;72.97;102379.50;5059402;28;47264;-84
2022/12/01 09:15:58;;;;;;;;;27.50;16.00;;;;;6.94;73.41;102389.94;5077591;28;45289;-84
2022/12/01 09:18:24;;;;;;;;;23.50;17.25;;;;;6.91;73.24;102389.91;5059657;28;45444;-84
2022/12/01 09:20:49;;;;;;;;;24.00;17.00;;;;;6.88;73.14;102387.28;5077966;28;45330;-84
2022/12/01 09:23:14;;;;;;;;;16.75;13.50;;;;;6.85;73.38;102378.59;5042091;28;53643;-83
2022/12/01 09:25:40;;;;;;;;;34.00;18.25;;;;;6.84;73.54;102372.56;5079681;27;46765;-84
2022/12/01 09:28:05;;;;;;;;;27.00;18.25;;;;;6.91;73.12;102376.09;5046279;27;58034;-83
2022/12/01 09:30:30;;;;;;;;;23.50;16.25;;;;;6.98;73.20;102383.09;5066323;27;45932;-83
2022/12/01 09:32:56;;;;;;;;;21.00;16.50;;;;;7.01;73.00;102390.03;5071620;27;47760;-83
2022/12/01 09:35:21;;;;;;;;;19.75;15.00;;;;;6.96;72.74;102390.84;5077997;27;45520;-83
2022/12/01 09:37:46;;;;;;;;;20.75;18.00;;;;;6.81;73.00;102363.91;5062707;27;45579;-83
2022/12/01 09:40:15;;;;;;;;;14.25;11.25;;;;;6.93;72.71;102392.53;5073548;27;54050;-83
2022/12/01 09:42:42;;;;;;;;;18.50;13.50;;;;;6.84;72.86;102385.50;5067894;27;46347;-83
2022/12/01 09:45:18;;;;;;;;;18.50;14.00;;;;;6.84;73.03;102384.66;5065578;27;45425;-84
2022/12/01 09:47:45;;;;;;;;;20.25;14.25;;;;;6.87;72.67;102379.50;5076166;27;45504;-83
2022/12/01 09:50:15;;;;;;;;;20.25;12.00;;;;;6.96;73.03;102377.91;5090432;27;45574;-82
2022/12/01 09:52:50;;;;;;;;;25.75;16.00;;;;;6.99;72.34;102369.31;5080714;27;47298;-82
2022/12/01 09:55:19;;;;;;;;;16.00;14.00;;;;;7.10;72.05;102385.81;5058554;28;45900;-83
2022/12/01 09:57:48;;;;;;;;;18.00;13.00;;;;;6.91;72.47;102363.13;5076110;27;45655;-84
2022/12/01 10:00:16;;;;;;;;;15.00;13.50;;;;;7.05;72.36;102384.03;5080030;27;46384;-90
2022/12/01 10:02:53;;;;;;;;;21.50;14.25;;;;;7.05;72.43;102384.03;5092521;27;47974;-89
2022/12/01 10:05:21;;;;;;;;;20.75;15.00;;;;;7.10;72.21;102390.16;5076241;27;45761;-89
2022/12/01 10:08:09;;;;;;;;;22.25;15.00;;;;;7.16;72.75;102382.44;5049639;27;45542;-90
2022/12/01 10:10:38;;;;;;;;;18.75;15.00;;;;;7.28;72.14;102389.47;5069387;27;45617;-90
2022/12/01 10:13:16;;;;;;;;;28.25;19.00;;;;;7.35;72.54;102394.75;5064873;27;47293;-91
2022/12/01 10:15:53;;;;;;;;;16.75;12.50;;;;;7.47;72.07;102385.38;5075407;27;46069;-91
2022/12/01 10:18:34;;;;;;;;;24.50;15.25;;;;;7.51;71.34;102388.00;5073778;27;45371;-90
2022/12/01 10:21:12;;;;;;;;;18.25;15.00;;;;;7.53;71.41;102380.25;5070154;27;45590;-91
2022/12/01 10:23:56;;;;;;;;;16.75;12.00;;;;;7.61;71.49;102380.31;5070113;27;47119;-91
2022/12/01 10:26:38;;;;;;;;;29.25;16.00;;;;;7.70;71.30;102377.81;5084437;27;45436;-90
2022/12/01 10:29:15;;;;;;;;;21.00;14.50;;;;;7.87;71.49;102377.97;5072165;27;45382;-90
2022/12/01 10:31:51;;;;;;;;;21.25;13.00;;;;;7.92;70.75;102373.69;5061000;28;45569;-90
2022/12/01 10:34:19;;;;;;;;;18.00;15.50;;;;;7.99;70.38;102375.47;5071389;27;45553;-91
2022/12/01 10:36:45;;;;;;;;;19.00;13.25;;;;;8.01;70.52;102372.91;5081419;27;45479;-91
2022/12/01 10:39:29;;;;;;;;;26.75;14.25;;;;;7.97;70.38;102377.19;5078460;27;45268;-91
2022/12/01 10:42:02;;;;;;;;;22.75;14.50;;;;;7.90;70.24;102375.41;5071365;27;45345;-90
2022/12/01 10:44:28;;;;;;;;;24.00;17.25;;;;;7.86;70.12;102366.72;5066685;28;47924;-90
2022/12/01 10:46:55;;;;;;;;;21.75;16.50;;;;;7.78;70.18;102359.75;5063032;27;45293;-90
2022/12/01 10:49:34;;;;;;;;;19.50;16.50;;;;;7.73;70.65;102357.13;5077918;27;45448;-90
2022/12/01 10:52:00;;;;;;;;;23.25;18.75;;;;;7.69;70.09;102371.78;5052618;28;45493;-91
2022/12/01 10:54:35;;;;;;;;;17.75;14.00;;;;;7.65;70.35;102366.53;5070514;27;53643;-87
2022/12/01 10:57:02;;;;;;;;;29.50;14.75;;;;;7.67;70.79;102362.22;5074695;27;45509;-91
2022/12/01 10:59:44;;;;;;;;;16.50;15.75;;;;;7.69;70.72;102351.03;5059730;28;45421;-91
2022/12/01 11:02:16;;;;;;;;;21.50;15.00;;;;;7.73;70.50;102352.78;5051531;28;45538;-90
2022/12/01 11:04:45;;;;;;;;;21.25;12.00;;;;;7.70;70.08;102352.75;5054413;27;49085;-91
2022/12/01 11:07:23;;;;;;;;;19.75;9.50;;;;;7.66;70.07;102356.19;5083142;27;45857;-90
2022/12/01 11:10:22;;;;;;;;;20.50;13.50;;;;;7.65;69.93;102353.56;5093576;27;45332;-89
2022/12/01 11:13:00;;;;;;;;;20.25;13.00;;;;;7.64;70.09;102352.72;5060757;27;45313;-90
2022/12/01 11:15:30;;;;;;;;;15.75;12.00;;;;;7.66;69.83;102353.59;5071350;27;47344;-90
2022/12/01 11:18:01;;;;;;;;;19.75;12.50;;;;;7.67;69.38;102352.75;5070119;28;45326;-91
2022/12/01 11:20:32;;;;;;;;;17.00;12.75;;;;;7.72;69.54;102350.19;5052747;28;45342;-91
2022/12/01 11:23:24;;;;;;;;;19.50;14.50;;;;;7.82;69.66;102346.81;5092672;27;45425;-91
2022/12/01 11:26:00;;;;;;;;;21.00;13.50;;;;;7.83;69.31;102350.28;5085756;27;45443;-91
2022/12/01 11:28:26;;;;;;;;;18.50;12.25;;;;;7.80;69.04;102342.47;5118088;27;45312;-91